• Join FlightAware (Why Join?)
  • Login
  • US Flag 
10:50PM EDT


 

Airport Tracker/Info


-or-


 

Live Flight TrackerFlight Track Log ✈ N724AE ✈ 07-Apr-2013 ✈ KDFW - KABI

Flight Track Log - Related Links

Times and Time Zones

All times are in EDT time to prevent confusion due to time zone crossing. See the N724AE flight status page for this flight to view local times or setup timezone preferences in your user account.

Time Position Orientation Groundspeed Altitude Reporting Facility
EDT Latitude Longitude Course Direction KTS MPH feet Rate Location/Type
03:51PM 32.8833 -97.0500 275° West 167 192 1,700  Level Dallas / Fort Worth TRACON
03:52PM 32.8000 -97.0500 180° South 229 264 4,400 2,640 Climbing Dallas / Fort Worth TRACON
03:53PM 32.7139 -97.0491 183° South  Level FlightAware Approximate
03:53PM 32.7667 -97.1000 232° Southwest 259 298 7,300  Level Dallas / Fort Worth TRACON
03:54PM 32.6833 -97.1556 270° West  Level FlightAware Approximate
03:55PM 32.6844 -97.2643 275° West  Level FlightAware Approximate
03:56PM 32.6928 -97.3727 275° West  Level FlightAware Approximate
03:56PM 32.7478 -97.3097 264° West 265 305 12,500  Level Fort Worth Center
03:57PM 32.7436 -97.3886 266° West 270 311 14,800 2,520 Climbing Fort Worth Center
03:58PM 32.7353 -97.4850 264° West 270 311 17,500 2,520 Climbing Fort Worth Center
03:59PM 32.7247 -97.5714 262° West 276 318 19,900 2,160 Climbing Fort Worth Center
04:00PM 32.7119 -97.6628 261° West 276 318 21,900 1,020 Climbing Fort Worth Center
04:01PM 32.6972 -97.7614 260° West 295 339 22,000  Climbing Fort Worth Center
04:02PM 32.6844 -97.8578 261° West 324 373 22,000  Level Fort Worth Center
04:03PM 32.6672 -97.9761 260° West 330 380 22,000  Level Fort Worth Center
04:04PM 32.6542 -98.0722 261° West 330 380 22,000  Level Fort Worth Center
04:05PM 32.6367 -98.1906 260° West 330 380 22,000  Level Fort Worth Center
04:06PM 32.6236 -98.2842 261° West 335 386 22,000  Level Fort Worth Center
04:07PM 32.6061 -98.3997 260° West 335 386 22,000 -660 Level Fort Worth Center
04:08PM 32.5883 -98.5131 259° West 335 386 20,700 -1,200 Descending Fort Worth Center
04:09PM 32.5728 -98.6311 261° West 351 404 19,700 -360 Descending Fort Worth Center
04:10PM 32.5547 -98.7542 260° West 372 428 20,000 -120 Climbing Fort Worth Center
04:11PM 32.5367 -98.8747 260° West 372 428 19,500 -540 Descending Fort Worth Center
04:12PM 32.5186 -98.9950 260° West 372 428 19,000 -300 Descending Fort Worth Center
04:13PM 32.4983 -99.1106 258° West 372 428 19,000 -1,140 Level Fort Worth Center
04:14PM 32.4842 -99.2136 261° West 354 407 16,800 -2,820 Descending Fort Worth Center
04:15PM 32.4681 -99.3144 259° West 328 377 13,500 -3,000 Descending Fort Worth Center
04:16PM 32.4542 -99.4150 261° West 323 372 10,900 -1,860 Descending Fort Worth Center
04:17PM 32.4569 -99.5036 272° West 301 346 9,800 -1,140 Descending Fort Worth Center